Urb Garcia Ponce, Puerto Rico
Current Conditions -  °F | °C
As of 9:53 AM on Thursday 30 Oct 2014 (Local Time) from TJNR Reporting Station
Overcast Overcast  
Wind Chill: 83°   Ceiling: 4200
Heat Index: 89°   Visibility: 10mi
Dew Point: 73°   Wind: 3mph
Humidity: 72%   Direction: 250°WSW
Pressure: 29.89"   Gusts: NA
Location:  18.3304°N, 65.6573°W
Report Text: TJNR 301353Z AUTO 25003KT 10SM FEW030 BKN042 OVC060 28/23 A2989 RMK AO2 SLP120 T02830228 $
Loading
Personal Weather Stations






























Interactive Weather Map
Tropical Storm Tracking
New forecast layout! Learn more

10-Day Weather Forecast

Advertisements
Track Severe Weather on mobile